sensor_id;sensor_type;location;lat;lon;timestamp;P1;P2;P0
68841;PMS5003;55849;48.482;2.332;2024-03-23T06:17:43;1.00;1.00;0.00
68841;PMS5003;55849;48.482;2.332;2024-03-23T06:20:44;5.00;1.00;0.00
68841;PMS5003;55849;48.482;2.332;2024-03-23T06:23:45;0.00;0.00;0.00
68841;PMS5003;55849;48.482;2.332;2024-03-23T06:26:51;1.00;0.00;0.00
68841;PMS5003;55849;48.482;2.332;2024-03-23T06:29:51;0.75;0.75;0.00
68841;PMS5003;55849;48.482;2.332;2024-03-23T06:32:54;1.00;1.00;0.00
68841;PMS5003;55849;48.482;2.332;2024-03-23T06:35:55;0.00;0.00;0.00
68841;PMS5003;55849;48.482;2.332;2024-03-23T06:38:57;4.50;1.50;0.00
68841;PMS5003;55849;48.482;2.332;2024-03-23T06:41:58;1.00;0.00;0.00
68841;PMS5003;55849;48.482;2.332;2024-03-23T06:45:00;3.00;3.00;1.00
68841;PMS5003;55849;48.482;2.332;2024-03-23T06:48:03;3.00;0.00;0.00
68841;PMS5003;55849;48.482;2.332;2024-03-23T06:51:04;7.00;0.50;0.00
68841;PMS5003;55849;48.482;2.332;2024-03-23T06:54:06;2.75;0.75;0.50
68841;PMS5003;55849;48.482;2.332;2024-03-23T06:57:07;3.00;3.00;0.00
68841;PMS5003;55849;48.482;2.332;2024-03-23T07:00:09;4.00;1.50;1.50
68841;PMS5003;55849;48.482;2.332;2024-03-23T07:03:12;3.00;0.75;0.00
68841;PMS5003;55849;48.482;2.332;2024-03-23T07:06:14;0.75;0.75;0.75
68841;PMS5003;55849;48.482;2.332;2024-03-23T07:09:16;3.50;3.00;0.50
68841;PMS5003;55849;48.482;2.332;2024-03-23T07:12:17;0.00;0.00;0.00
68841;PMS5003;55849;48.482;2.332;2024-03-23T07:15:19;0.25;0.00;0.00
68841;PMS5003;55849;48.482;2.332;2024-03-23T07:18:21;3.00;1.00;0.00
68841;PMS5003;55849;48.482;2.332;2024-03-23T07:21:23;1.25;0.00;0.00
68841;PMS5003;55849;48.482;2.332;2024-03-23T07:24:23;0.25;0.00;0.00
68841;PMS5003;55849;48.482;2.332;2024-03-23T07:27:25;1.00;1.00;0.00
68841;PMS5003;55849;48.482;2.332;2024-03-23T07:30:26;0.50;0.50;0.00
68841;PMS5003;55849;48.482;2.332;2024-03-23T07:33:29;0.50;0.50;0.00
68841;PMS5003;55849;48.482;2.332;2024-03-23T07:36:29;1.00;0.00;0.00
68841;PMS5003;55849;48.482;2.332;2024-03-23T07:39:31;0.75;0.00;0.00
68841;PMS5003;55849;48.482;2.332;2024-03-23T07:42:34;1.50;0.25;0.00
68841;PMS5003;55849;48.482;2.332;2024-03-23T07:45:34;0.00;0.00;0.00
68841;PMS5003;55849;48.482;2.332;2024-03-23T07:48:39;0.00;0.00;0.00
68841;PMS5003;55849;48.482;2.332;2024-03-23T07:51:40;0.00;0.00;0.00
68841;PMS5003;55849;48.482;2.332;2024-03-23T07:54:41;0.00;0.00;0.00
68841;PMS5003;55849;48.482;2.332;2024-03-23T07:57:42;0.00;0.00;0.00
68841;PMS5003;55849;48.482;2.332;2024-03-23T08:00:44;0.00;0.00;0.00
68841;PMS5003;55849;48.482;2.332;2024-03-23T08:03:47;0.50;0.50;0.00
68841;PMS5003;55849;48.482;2.332;2024-03-23T08:06:48;0.25;0.00;0.00
68841;PMS5003;55849;48.482;2.332;2024-03-23T08:09:50;0.00;0.00;0.00
68841;PMS5003;55849;48.482;2.332;2024-03-23T08:12:51;0.50;0.00;0.00
68841;PMS5003;55849;48.482;2.332;2024-03-23T08:15:55;0.00;0.00;0.00
68841;PMS5003;55849;48.482;2.332;2024-03-23T08:18:59;0.00;0.00;0.00
68841;PMS5003;55849;48.482;2.332;2024-03-23T08:21:59;0.00;0.00;0.00
68841;PMS5003;55849;48.482;2.332;2024-03-23T08:25:02;0.00;0.00;0.00
68841;PMS5003;55849;48.482;2.332;2024-03-23T08:28:03;4.00;0.00;0.00
68841;PMS5003;55849;48.482;2.332;2024-03-23T08:31:06;0.00;0.00;0.00
68841;PMS5003;55849;48.482;2.332;2024-03-23T08:34:08;1.00;1.00;1.00
68841;PMS5003;55849;48.482;2.332;2024-03-23T08:37:10;0.00;0.00;0.00
68841;PMS5003;55849;48.482;2.332;2024-03-23T08:40:11;1.00;1.00;0.00
68841;PMS5003;55849;48.482;2.332;2024-03-23T08:43:13;0.00;0.00;0.00
68841;PMS5003;55849;48.482;2.332;2024-03-23T08:46:14;1.00;1.00;0.00
68841;PMS5003;55849;48.482;2.332;2024-03-23T08:49:17;0.00;0.00;0.00
68841;PMS5003;55849;48.482;2.332;2024-03-23T08:52:20;4.50;1.00;0.00
68841;PMS5003;55849;48.482;2.332;2024-03-23T08:55:23;0.00;0.00;0.00
68841;PMS5003;55849;48.482;2.332;2024-03-23T08:58:24;7.50;2.25;0.00
68841;PMS5003;55849;48.482;2.332;2024-03-23T09:01:26;0.75;0.75;0.00
68841;PMS5003;55849;48.482;2.332;2024-03-23T09:04:29;0.00;0.00;0.00
68841;PMS5003;55849;48.482;2.332;2024-03-23T09:07:30;1.00;0.00;0.00
68841;PMS5003;55849;48.482;2.332;2024-03-23T09:10:34;0.00;0.00;0.00
68841;PMS5003;55849;48.482;2.332;2024-03-23T09:13:39;1.75;0.00;0.00
68841;PMS5003;55849;48.482;2.332;2024-03-23T09:16:40;0.25;0.25;0.25
68841;PMS5003;55849;48.482;2.332;2024-03-23T09:19:43;0.00;0.00;0.00
68841;PMS5003;55849;48.482;2.332;2024-03-23T09:22:43;2.50;1.00;0.00
68841;PMS5003;55849;48.482;2.332;2024-03-23T09:25:45;2.50;0.00;0.00
68841;PMS5003;55849;48.482;2.332;2024-03-23T09:28:48;0.00;0.00;0.00
68841;PMS5003;55849;48.482;2.332;2024-03-23T09:31:48;3.00;0.00;0.00
68841;PMS5003;55849;48.482;2.332;2024-03-23T09:34:51;0.00;0.00;0.00
68841;PMS5003;55849;48.482;2.332;2024-03-23T09:37:52;1.00;1.00;0.00
68841;PMS5003;55849;48.482;2.332;2024-03-23T09:40:53;0.00;0.00;0.00
68841;PMS5003;55849;48.482;2.332;2024-03-23T09:43:55;0.00;0.00;0.00
68841;PMS5003;55849;48.482;2.332;2024-03-23T09:46:56;0.25;0.00;0.00
68841;PMS5003;55849;48.482;2.332;2024-03-23T09:49:59;1.50;0.00;0.00
68841;PMS5003;55849;48.482;2.332;2024-03-23T09:53:01;6.00;0.00;0.00
68841;PMS5003;55849;48.482;2.332;2024-03-23T09:56:03;0.75;0.00;0.00
68841;PMS5003;55849;48.482;2.332;2024-03-23T09:59:05;0.00;0.00;0.00
68841;PMS5003;55849;48.482;2.332;2024-03-23T10:02:07;1.50;0.00;0.00
68841;PMS5003;55849;48.482;2.332;2024-03-23T10:05:20;1.00;1.00;0.00
68841;PMS5003;55849;48.482;2.332;2024-03-23T10:08:22;2.50;0.00;0.00
68841;PMS5003;55849;48.482;2.332;2024-03-23T10:11:23;0.00;0.00;0.00
68841;PMS5003;55849;48.482;2.332;2024-03-23T10:14:28;3.75;2.50;0.00
68841;PMS5003;55849;48.482;2.332;2024-03-23T10:17:29;0.00;0.00;0.00
68841;PMS5003;55849;48.482;2.332;2024-03-23T10:20:32;0.00;0.00;0.00
68841;PMS5003;55849;48.482;2.332;2024-03-23T10:23:34;0.00;0.00;0.00
68841;PMS5003;55849;48.482;2.332;2024-03-23T10:26:35;0.00;0.00;0.00
68841;PMS5003;55849;48.482;2.332;2024-03-23T10:29:37;0.00;0.00;0.00
68841;PMS5003;55849;48.482;2.332;2024-03-23T10:32:38;0.00;0.00;0.00
68841;PMS5003;55849;48.482;2.332;2024-03-23T10:35:40;0.00;0.00;0.00
68841;PMS5003;55849;48.482;2.332;2024-03-23T10:38:43;0.00;0.00;0.00
68841;PMS5003;55849;48.482;2.332;2024-03-23T10:41:44;0.50;0.50;0.00
68841;PMS5003;55849;48.482;2.332;2024-03-23T10:44:47;0.00;0.00;0.00
68841;PMS5003;55849;48.482;2.332;2024-03-23T10:47:50;0.50;0.50;0.00
68841;PMS5003;55849;48.482;2.332;2024-03-23T10:50:53;0.00;0.00;0.00
68841;PMS5003;55849;48.482;2.332;2024-03-23T10:53:55;2.25;0.25;0.00
68841;PMS5003;55849;48.482;2.332;2024-03-23T10:56:59;1.00;1.00;0.50
68841;PMS5003;55849;48.482;2.332;2024-03-23T11:00:05;4.25;0.25;0.00
68841;PMS5003;55849;48.482;2.332;2024-03-23T11:06:35;1.00;1.00;0.00
68841;PMS5003;55849;48.482;2.332;2024-03-23T11:09:38;0.00;0.00;0.00
68841;PMS5003;55849;48.482;2.332;2024-03-23T11:12:39;0.25;0.25;0.25
68841;PMS5003;55849;48.482;2.332;2024-03-23T11:15:40;0.00;0.00;0.00
68841;PMS5003;55849;48.482;2.332;2024-03-23T11:18:41;1.00;1.00;0.00
68841;PMS5003;55849;48.482;2.332;2024-03-23T11:21:54;0.50;0.00;0.00
68841;PMS5003;55849;48.482;2.332;2024-03-23T11:24:55;1.00;1.00;1.00
68841;PMS5003;55849;48.482;2.332;2024-03-23T11:27:57;2.75;1.00;1.00
68841;PMS5003;55849;48.482;2.332;2024-03-23T11:30:59;0.75;0.00;0.00
68841;PMS5003;55849;48.482;2.332;2024-03-23T11:34:02;0.00;0.00;0.00
68841;PMS5003;55849;48.482;2.332;2024-03-23T11:37:06;0.00;0.00;0.00
68841;PMS5003;55849;48.482;2.332;2024-03-23T11:40:16;0.00;0.00;0.00
68841;PMS5003;55849;48.482;2.332;2024-03-23T11:43:19;0.00;0.00;0.00
68841;PMS5003;55849;48.482;2.332;2024-03-23T11:46:22;0.00;0.00;0.00
68841;PMS5003;55849;48.482;2.332;2024-03-23T11:49:23;3.25;0.25;0.00
68841;PMS5003;55849;48.482;2.332;2024-03-23T11:52:27;0.00;0.00;0.00
68841;PMS5003;55849;48.482;2.332;2024-03-23T11:55:28;0.00;0.00;0.00
68841;PMS5003;55849;48.482;2.332;2024-03-23T11:58:29;0.00;0.00;0.00
68841;PMS5003;55849;48.482;2.332;2024-03-23T12:01:30;1.00;0.00;0.00
68841;PMS5003;55849;48.482;2.332;2024-03-23T12:04:32;0.25;0.00;0.00
68841;PMS5003;55849;48.482;2.332;2024-03-23T12:07:37;0.00;0.00;0.00
68841;PMS5003;55849;48.482;2.332;2024-03-23T12:10:38;3.50;2.50;1.00
68841;PMS5003;55849;48.482;2.332;2024-03-23T12:13:39;1.00;1.00;0.00
68841;PMS5003;55849;48.482;2.332;2024-03-23T12:16:43;0.00;0.00;0.00
68841;PMS5003;55849;48.482;2.332;2024-03-23T12:19:43;0.50;0.50;0.50
68841;PMS5003;55849;48.482;2.332;2024-03-23T12:22:47;0.00;0.00;0.00
68841;PMS5003;55849;48.482;2.332;2024-03-23T12:25:48;0.00;0.00;0.00
68841;PMS5003;55849;48.482;2.332;2024-03-23T12:28:50;1.00;0.00;0.00
68841;PMS5003;55849;48.482;2.332;2024-03-23T12:31:50;0.75;0.75;0.00
68841;PMS5003;55849;48.482;2.332;2024-03-23T12:34:52;0.25;0.25;0.00
68841;PMS5003;55849;48.482;2.332;2024-03-23T12:37:54;0.00;0.00;0.00
68841;PMS5003;55849;48.482;2.332;2024-03-23T12:40:56;0.00;0.00;0.00
68841;PMS5003;55849;48.482;2.332;2024-03-23T12:43:56;0.00;0.00;0.00
68841;PMS5003;55849;48.482;2.332;2024-03-23T12:46:59;0.75;0.00;0.00
68841;PMS5003;55849;48.482;2.332;2024-03-23T12:50:00;0.00;0.00;0.00
68841;PMS5003;55849;48.482;2.332;2024-03-23T12:53:02;3.00;0.00;0.00
68841;PMS5003;55849;48.482;2.332;2024-03-23T12:56:04;1.00;0.00;0.00
68841;PMS5003;55849;48.482;2.332;2024-03-23T12:59:05;0.00;0.00;0.00
68841;PMS5003;55849;48.482;2.332;2024-03-23T13:02:07;1.75;1.00;0.00
68841;PMS5003;55849;48.482;2.332;2024-03-23T13:05:08;0.00;0.00;0.00
68841;PMS5003;55849;48.482;2.332;2024-03-23T13:08:11;0.00;0.00;0.00
68841;PMS5003;55849;48.482;2.332;2024-03-23T13:11:12;1.00;1.00;0.00
68841;PMS5003;55849;48.482;2.332;2024-03-23T13:14:14;3.50;3.50;2.00
68841;PMS5003;55849;48.482;2.332;2024-03-23T13:17:16;1.00;0.25;0.25
68841;PMS5003;55849;48.482;2.332;2024-03-23T13:20:18;5.50;3.75;2.50
68841;PMS5003;55849;48.482;2.332;2024-03-23T13:23:21;5.00;3.25;3.00
68841;PMS5003;55849;48.482;2.332;2024-03-23T13:26:22;3.75;3.00;2.75
68841;PMS5003;55849;48.482;2.332;2024-03-23T13:29:24;3.00;3.00;2.00
68841;PMS5003;55849;48.482;2.332;2024-03-23T13:32:26;0.00;0.00;0.00
68841;PMS5003;55849;48.482;2.332;2024-03-23T13:35:27;1.00;0.00;0.00
68841;PMS5003;55849;48.482;2.332;2024-03-23T13:38:29;0.00;0.00;0.00
68841;PMS5003;55849;48.482;2.332;2024-03-23T13:41:31;0.25;0.00;0.00
68841;PMS5003;55849;48.482;2.332;2024-03-23T13:44:31;0.00;0.00;0.00
68841;PMS5003;55849;48.482;2.332;2024-03-23T13:47:33;0.00;0.00;0.00
68841;PMS5003;55849;48.482;2.332;2024-03-23T13:50:34;1.00;1.00;1.00
68841;PMS5003;55849;48.482;2.332;2024-03-23T13:53:37;1.00;1.00;0.00
68841;PMS5003;55849;48.482;2.332;2024-03-23T13:56:38;1.25;0.00;0.00
68841;PMS5003;55849;48.482;2.332;2024-03-23T13:59:39;0.50;0.25;0.00
68841;PMS5003;55849;48.482;2.332;2024-03-23T14:02:40;3.00;1.00;0.25
68841;PMS5003;55849;48.482;2.332;2024-03-23T14:05:41;0.25;0.25;0.00
68841;PMS5003;55849;48.482;2.332;2024-03-23T14:08:45;2.00;0.75;0.00
68841;PMS5003;55849;48.482;2.332;2024-03-23T14:11:45;5.00;3.00;1.50
68841;PMS5003;55849;48.482;2.332;2024-03-23T14:14:47;3.00;2.00;0.00
68841;PMS5003;55849;48.482;2.332;2024-03-23T14:17:48;1.00;0.00;0.00
68841;PMS5003;55849;48.482;2.332;2024-03-23T14:20:51;1.25;1.00;1.00
68841;PMS5003;55849;48.482;2.332;2024-03-23T14:23:55;0.00;0.00;0.00
68841;PMS5003;55849;48.482;2.332;2024-03-23T14:26:57;0.00;0.00;0.00
68841;PMS5003;55849;48.482;2.332;2024-03-23T14:29:58;2.75;2.75;1.25
68841;PMS5003;55849;48.482;2.332;2024-03-23T14:33:00;1.00;1.00;1.00
68841;PMS5003;55849;48.482;2.332;2024-03-23T14:36:02;1.75;0.25;0.00
68841;PMS5003;55849;48.482;2.332;2024-03-23T14:39:04;1.00;1.00;0.00
68841;PMS5003;55849;48.482;2.332;2024-03-23T14:42:06;0.75;0.75;0.00
68841;PMS5003;55849;48.482;2.332;2024-03-23T14:45:08;0.25;0.25;0.00
68841;PMS5003;55849;48.482;2.332;2024-03-23T14:48:11;2.00;0.75;0.00
68841;PMS5003;55849;48.482;2.332;2024-03-23T14:51:12;0.00;0.00;0.00
68841;PMS5003;55849;48.482;2.332;2024-03-23T14:54:15;1.00;0.00;0.00
68841;PMS5003;55849;48.482;2.332;2024-03-23T14:57:16;1.75;0.00;0.00
68841;PMS5003;55849;48.482;2.332;2024-03-23T15:00:19;0.50;0.00;0.00
68841;PMS5003;55849;48.482;2.332;2024-03-23T15:03:19;0.75;0.75;0.00
68841;PMS5003;55849;48.482;2.332;2024-03-23T15:06:21;4.50;2.00;0.75
68841;PMS5003;55849;48.482;2.332;2024-03-23T15:09:23;22.50;21.00;14.00
68841;PMS5003;55849;48.482;2.332;2024-03-23T15:12:25;3.00;3.00;2.00
68841;PMS5003;55849;48.482;2.332;2024-03-23T15:15:26;43.50;35.75;23.00
68841;PMS5003;55849;48.482;2.332;2024-03-23T15:18:28;4.00;4.00;2.25
68841;PMS5003;55849;48.482;2.332;2024-03-23T15:21:30;6.00;6.00;4.00
68841;PMS5003;55849;48.482;2.332;2024-03-23T15:24:31;10.00;9.50;7.00
68841;PMS5003;55849;48.482;2.332;2024-03-23T15:27:35;9.75;9.50;7.00
68841;PMS5003;55849;48.482;2.332;2024-03-23T15:30:35;4.00;4.00;2.75
68841;PMS5003;55849;48.482;2.332;2024-03-23T15:33:37;1.50;1.00;1.00
68841;PMS5003;55849;48.482;2.332;2024-03-23T15:36:39;0.75;0.75;0.75
68841;PMS5003;55849;48.482;2.332;2024-03-23T15:39:42;0.50;0.50;0.00
68841;PMS5003;55849;48.482;2.332;2024-03-23T15:42:43;0.75;0.75;0.25
68841;PMS5003;55849;48.482;2.332;2024-03-23T15:45:44;3.50;3.50;3.00
68841;PMS5003;55849;48.482;2.332;2024-03-23T15:48:54;1.00;1.00;0.50
68841;PMS5003;55849;48.482;2.332;2024-03-23T15:51:55;1.00;0.00;0.00
68841;PMS5003;55849;48.482;2.332;2024-03-23T15:54:58;0.50;0.50;0.00
68841;PMS5003;55849;48.482;2.332;2024-03-23T15:58:00;5.50;4.25;4.25
68841;PMS5003;55849;48.482;2.332;2024-03-23T16:01:01;2.00;1.50;1.00
68841;PMS5003;55849;48.482;2.332;2024-03-23T16:04:04;0.00;0.00;0.00
68841;PMS5003;55849;48.482;2.332;2024-03-23T16:07:05;4.50;4.50;3.25
68841;PMS5003;55849;48.482;2.332;2024-03-23T16:10:08;1.00;1.00;1.00
68841;PMS5003;55849;48.482;2.332;2024-03-23T16:13:11;1.25;1.25;1.00
68841;PMS5003;55849;48.482;2.332;2024-03-23T16:16:13;5.25;3.00;2.00
68841;PMS5003;55849;48.482;2.332;2024-03-23T16:19:16;4.00;1.25;1.00
68841;PMS5003;55849;48.482;2.332;2024-03-23T16:22:17;2.75;2.25;1.00
68841;PMS5003;55849;48.482;2.332;2024-03-23T16:25:19;1.25;1.25;0.00
68841;PMS5003;55849;48.482;2.332;2024-03-23T16:28:24;1.00;1.00;1.00
68841;PMS5003;55849;48.482;2.332;2024-03-23T16:31:25;2.75;2.75;2.25
68841;PMS5003;55849;48.482;2.332;2024-03-23T16:34:26;3.00;2.50;2.25
68841;PMS5003;55849;48.482;2.332;2024-03-23T16:37:28;3.50;2.00;2.00
68841;PMS5003;55849;48.482;2.332;2024-03-23T16:40:29;18.00;14.50;9.25
68841;PMS5003;55849;48.482;2.332;2024-03-23T16:43:31;5.75;4.75;3.00
68841;PMS5003;55849;48.482;2.332;2024-03-23T16:46:34;1.00;1.00;0.75
68841;PMS5003;55849;48.482;2.332;2024-03-23T16:49:35;4.00;2.25;1.00
68841;PMS5003;55849;48.482;2.332;2024-03-23T16:52:37;0.00;0.00;0.00
68841;PMS5003;55849;48.482;2.332;2024-03-23T16:55:41;2.00;0.00;0.00
68841;PMS5003;55849;48.482;2.332;2024-03-23T16:58:42;0.00;0.00;0.00
68841;PMS5003;55849;48.482;2.332;2024-03-23T17:01:46;0.00;0.00;0.00
68841;PMS5003;55849;48.482;2.332;2024-03-23T17:04:47;1.00;0.00;0.00
68841;PMS5003;55849;48.482;2.332;2024-03-23T17:07:48;3.00;0.00;0.00
68841;PMS5003;55849;48.482;2.332;2024-03-23T17:10:50;5.50;3.00;2.00
68841;PMS5003;55849;48.482;2.332;2024-03-23T17:13:52;9.75;8.00;5.00
68841;PMS5003;55849;48.482;2.332;2024-03-23T17:16:54;2.50;2.50;1.00
68841;PMS5003;55849;48.482;2.332;2024-03-23T17:19:58;0.25;0.00;0.00
68841;PMS5003;55849;48.482;2.332;2024-03-23T17:22:59;1.00;1.00;0.00
68841;PMS5003;55849;48.482;2.332;2024-03-23T17:26:02;0.00;0.00;0.00
68841;PMS5003;55849;48.482;2.332;2024-03-23T17:29:03;1.00;1.00;1.00
68841;PMS5003;55849;48.482;2.332;2024-03-23T17:32:05;4.00;4.00;3.00
68841;PMS5003;55849;48.482;2.332;2024-03-23T17:35:06;3.00;3.00;0.75
68841;PMS5003;55849;48.482;2.332;2024-03-23T17:38:07;2.50;2.50;1.50
68841;PMS5003;55849;48.482;2.332;2024-03-23T17:41:10;8.50;6.00;4.00
68841;PMS5003;55849;48.482;2.332;2024-03-23T17:44:13;8.00;6.75;3.50
68841;PMS5003;55849;48.482;2.332;2024-03-23T17:47:13;2.50;2.50;1.00
68841;PMS5003;55849;48.482;2.332;2024-03-23T17:50:15;1.00;1.00;1.00
68841;PMS5003;55849;48.482;2.332;2024-03-23T17:53:16;9.00;7.00;4.00
68841;PMS5003;55849;48.482;2.332;2024-03-23T17:56:19;11.50;7.50;5.00
68841;PMS5003;55849;48.482;2.332;2024-03-23T17:59:20;7.50;5.50;3.75
68841;PMS5003;55849;48.482;2.332;2024-03-23T18:02:21;7.50;7.50;6.00
68841;PMS5003;55849;48.482;2.332;2024-03-23T18:05:22;11.50;11.50;9.50
68841;PMS5003;55849;48.482;2.332;2024-03-23T18:08:24;13.00;11.00;8.00
68841;PMS5003;55849;48.482;2.332;2024-03-23T18:11:27;9.50;7.25;4.00
68841;PMS5003;55849;48.482;2.332;2024-03-23T18:14:28;1.00;1.00;0.25
68841;PMS5003;55849;48.482;2.332;2024-03-23T18:17:29;4.00;4.00;3.00
68841;PMS5003;55849;48.482;2.332;2024-03-23T18:20:31;14.50;8.25;4.00
68841;PMS5003;55849;48.482;2.332;2024-03-23T18:23:33;7.50;7.50;4.00
68841;PMS5003;55849;48.482;2.332;2024-03-23T18:26:35;5.50;5.50;1.00
68841;PMS5003;55849;48.482;2.332;2024-03-23T18:29:37;7.50;6.75;3.50
68841;PMS5003;55849;48.482;2.332;2024-03-23T18:32:38;10.00;10.00;7.00
68841;PMS5003;55849;48.482;2.332;2024-03-23T18:35:39;9.00;9.00;5.50
68841;PMS5003;55849;48.482;2.332;2024-03-23T18:38:41;12.00;9.00;6.00
68841;PMS5003;55849;48.482;2.332;2024-03-23T18:41:44;16.00;11.00;8.50
68841;PMS5003;55849;48.482;2.332;2024-03-23T18:44:46;24.50;22.75;15.75
68841;PMS5003;55849;48.482;2.332;2024-03-23T18:47:47;52.25;35.75;20.50
68841;PMS5003;55849;48.482;2.332;2024-03-23T18:50:48;118.00;99.75;62.50
68841;PMS5003;55849;48.482;2.332;2024-03-23T18:53:49;92.00;71.00;49.00
68841;PMS5003;55849;48.482;2.332;2024-03-23T18:56:52;49.50;42.25;30.00
68841;PMS5003;55849;48.482;2.332;2024-03-23T18:59:54;47.50;39.50;30.50
68841;PMS5003;55849;48.482;2.332;2024-03-23T19:02:55;53.25;43.25;28.25
68841;PMS5003;55849;48.482;2.332;2024-03-23T19:05:57;31.50;26.75;18.75
68841;PMS5003;55849;48.482;2.332;2024-03-23T19:08:58;38.00;30.50;24.00
68841;PMS5003;55849;48.482;2.332;2024-03-23T19:12:01;37.75;30.00;22.00
68841;PMS5003;55849;48.482;2.332;2024-03-23T19:15:02;47.25;40.50;27.50
68841;PMS5003;55849;48.482;2.332;2024-03-23T19:18:05;37.50;30.25;25.00
68841;PMS5003;55849;48.482;2.332;2024-03-23T19:21:06;39.25;35.00;23.00
68841;PMS5003;55849;48.482;2.332;2024-03-23T19:24:08;51.50;39.75;27.25
68841;PMS5003;55849;48.482;2.332;2024-03-23T19:27:11;30.00;25.50;18.00
68841;PMS5003;55849;48.482;2.332;2024-03-23T19:30:12;24.50;23.50;18.75
68841;PMS5003;55849;48.482;2.332;2024-03-23T19:33:15;19.50;16.50;13.00
68841;PMS5003;55849;48.482;2.332;2024-03-23T19:36:17;18.00;14.00;9.75
68841;PMS5003;55849;48.482;2.332;2024-03-23T19:39:17;11.00;8.00;5.00
68841;PMS5003;55849;48.482;2.332;2024-03-23T19:42:20;5.00;3.00;3.00
68841;PMS5003;55849;48.482;2.332;2024-03-23T19:45:21;4.00;4.00;1.50
68841;PMS5003;55849;48.482;2.332;2024-03-23T19:48:22;11.50;5.00;3.75
68841;PMS5003;55849;48.482;2.332;2024-03-23T19:51:23;0.00;0.00;0.00
68841;PMS5003;55849;48.482;2.332;2024-03-23T19:54:25;0.00;0.00;0.00
68841;PMS5003;55849;48.482;2.332;2024-03-23T19:57:30;1.00;0.00;0.00
68841;PMS5003;55849;48.482;2.332;2024-03-23T20:00:30;1.00;1.00;0.00
68841;PMS5003;55849;48.482;2.332;2024-03-23T20:03:33;3.00;2.50;1.00
68841;PMS5003;55849;48.482;2.332;2024-03-23T20:06:33;5.00;3.25;2.00
68841;PMS5003;55849;48.482;2.332;2024-03-23T20:09:35;3.75;3.00;1.00
68841;PMS5003;55849;48.482;2.332;2024-03-23T20:12:37;9.75;7.00;3.50
68841;PMS5003;55849;48.482;2.332;2024-03-23T20:15:39;12.75;11.75;7.50
68841;PMS5003;55849;48.482;2.332;2024-03-23T20:18:40;33.50;25.50;14.50
68841;PMS5003;55849;48.482;2.332;2024-03-23T20:21:41;21.00;18.00;11.50
68841;PMS5003;55849;48.482;2.332;2024-03-23T20:24:42;15.25;13.50;9.25
68841;PMS5003;55849;48.482;2.332;2024-03-23T20:27:45;7.00;4.00;3.00
68841;PMS5003;55849;48.482;2.332;2024-03-23T20:30:45;8.25;6.50;5.00
68841;PMS5003;55849;48.482;2.332;2024-03-23T20:33:47;9.25;9.25;8.00
68841;PMS5003;55849;48.482;2.332;2024-03-23T20:36:48;10.75;7.25;4.00
68841;PMS5003;55849;48.482;2.332;2024-03-23T20:39:49;10.50;7.00;4.00
68841;PMS5003;55849;48.482;2.332;2024-03-23T20:42:52;3.50;1.00;0.00
68841;PMS5003;55849;48.482;2.332;2024-03-23T20:45:54;6.00;4.00;3.00
68841;PMS5003;55849;48.482;2.332;2024-03-23T20:48:57;1.00;1.00;1.00
68841;PMS5003;55849;48.482;2.332;2024-03-23T20:51:59;0.00;0.00;0.00
68841;PMS5003;55849;48.482;2.332;2024-03-23T20:55:01;5.00;3.75;3.00
68841;PMS5003;55849;48.482;2.332;2024-03-23T20:58:03;11.25;6.00;3.75
68841;PMS5003;55849;48.482;2.332;2024-03-23T21:01:05;6.25;6.25;5.50
68841;PMS5003;55849;48.482;2.332;2024-03-23T21:04:08;4.00;4.00;3.00
68841;PMS5003;55849;48.482;2.332;2024-03-23T21:07:09;12.00;12.00;9.00
68841;PMS5003;55849;48.482;2.332;2024-03-23T21:10:10;7.25;4.00;3.00
68841;PMS5003;55849;48.482;2.332;2024-03-23T21:13:14;5.00;5.00;3.75
68841;PMS5003;55849;48.482;2.332;2024-03-23T21:16:16;13.50;9.50;6.25
68841;PMS5003;55849;48.482;2.332;2024-03-23T21:19:18;12.50;11.50;8.50
68841;PMS5003;55849;48.482;2.332;2024-03-23T21:22:18;9.50;9.50;6.00
68841;PMS5003;55849;48.482;2.332;2024-03-23T21:25:20;3.00;2.50;1.00
68841;PMS5003;55849;48.482;2.332;2024-03-23T21:28:22;9.00;6.00;3.00
68841;PMS5003;55849;48.482;2.332;2024-03-23T21:31:24;6.00;6.00;4.00
68841;PMS5003;55849;48.482;2.332;2024-03-23T21:34:26;11.00;5.00;4.00
68841;PMS5003;55849;48.482;2.332;2024-03-23T21:37:26;9.00;6.25;5.50
68841;PMS5003;55849;48.482;2.332;2024-03-23T21:40:28;4.00;4.00;1.00
68841;PMS5003;55849;48.482;2.332;2024-03-23T21:43:31;3.00;3.00;2.50
68841;PMS5003;55849;48.482;2.332;2024-03-23T21:46:32;6.25;6.25;4.00
68841;PMS5003;55849;48.482;2.332;2024-03-23T21:49:33;0.50;0.50;0.50
68841;PMS5003;55849;48.482;2.332;2024-03-23T21:52:35;13.50;6.25;3.00
68841;PMS5003;55849;48.482;2.332;2024-03-23T21:55:35;7.00;6.25;4.00
68841;PMS5003;55849;48.482;2.332;2024-03-23T21:58:38;12.75;12.75;10.00
68841;PMS5003;55849;48.482;2.332;2024-03-23T22:01:39;12.00;8.00;6.00
68841;PMS5003;55849;48.482;2.332;2024-03-23T22:04:40;9.75;7.00;6.00
68841;PMS5003;55849;48.482;2.332;2024-03-23T22:07:41;8.50;5.00;3.75
68841;PMS5003;55849;48.482;2.332;2024-03-23T22:10:43;13.00;9.00;4.00
68841;PMS5003;55849;48.482;2.332;2024-03-23T22:13:45;9.50;6.00;6.00
68841;PMS5003;55849;48.482;2.332;2024-03-23T22:16:47;30.00;25.00;18.00
68841;PMS5003;55849;48.482;2.332;2024-03-23T22:19:47;31.00;27.50;17.25
68841;PMS5003;55849;48.482;2.332;2024-03-23T22:22:49;5.75;5.75;4.00
68841;PMS5003;55849;48.482;2.332;2024-03-23T22:25:51;9.00;6.50;4.00
68841;PMS5003;55849;48.482;2.332;2024-03-23T22:28:53;6.25;6.00;4.00
68841;PMS5003;55849;48.482;2.332;2024-03-23T22:31:55;6.25;3.00;2.00
68841;PMS5003;55849;48.482;2.332;2024-03-23T22:34:58;0.00;0.00;0.00
68841;PMS5003;55849;48.482;2.332;2024-03-23T22:37:58;24.50;21.75;15.00
68841;PMS5003;55849;48.482;2.332;2024-03-23T22:41:03;3.00;2.50;1.00
68841;PMS5003;55849;48.482;2.332;2024-03-23T22:44:06;21.50;20.00;15.50
68841;PMS5003;55849;48.482;2.332;2024-03-23T22:47:07;8.25;6.25;5.50
68841;PMS5003;55849;48.482;2.332;2024-03-23T22:50:08;0.00;0.00;0.00
68841;PMS5003;55849;48.482;2.332;2024-03-23T22:53:10;3.00;3.00;1.00
68841;PMS5003;55849;48.482;2.332;2024-03-23T22:56:12;0.00;0.00;0.00
68841;PMS5003;55849;48.482;2.332;2024-03-23T22:59:15;1.00;1.00;1.00
68841;PMS5003;55849;48.482;2.332;2024-03-23T23:02:15;1.00;1.00;1.00
68841;PMS5003;55849;48.482;2.332;2024-03-23T23:05:17;5.00;3.75;3.00
68841;PMS5003;55849;48.482;2.332;2024-03-23T23:08:19;4.00;1.00;1.00
68841;PMS5003;55849;48.482;2.332;2024-03-23T23:11:19;2.50;2.50;1.00
68841;PMS5003;55849;48.482;2.332;2024-03-23T23:14:23;1.00;0.50;0.00
68841;PMS5003;55849;48.482;2.332;2024-03-23T23:17:24;0.00;0.00;0.00
68841;PMS5003;55849;48.482;2.332;2024-03-23T23:20:25;0.75;0.75;0.00
68841;PMS5003;55849;48.482;2.332;2024-03-23T23:23:26;0.50;0.50;0.25
68841;PMS5003;55849;48.482;2.332;2024-03-23T23:26:28;1.00;1.00;0.00
68841;PMS5003;55849;48.482;2.332;2024-03-23T23:29:30;4.00;1.50;1.00
68841;PMS5003;55849;48.482;2.332;2024-03-23T23:32:32;3.00;0.00;0.00
68841;PMS5003;55849;48.482;2.332;2024-03-23T23:35:33;1.50;0.00;0.00
68841;PMS5003;55849;48.482;2.332;2024-03-23T23:38:34;8.50;4.00;3.00
68841;PMS5003;55849;48.482;2.332;2024-03-23T23:41:36;2.50;0.25;0.25
68841;PMS5003;55849;48.482;2.332;2024-03-23T23:44:38;4.00;1.00;0.00
68841;PMS5003;55849;48.482;2.332;2024-03-23T23:47:39;3.75;1.00;0.00
68841;PMS5003;55849;48.482;2.332;2024-03-23T23:50:40;1.00;1.00;1.00
68841;PMS5003;55849;48.482;2.332;2024-03-23T23:53:42;3.00;1.00;1.00
68841;PMS5003;55849;48.482;2.332;2024-03-23T23:56:43;3.00;1.00;0.50
68841;PMS5003;55849;48.482;2.332;2024-03-23T23:59:46;3.00;1.00;0.00
